createdAt,value
2018-09-01T00:01:28.095Z,102227.92
2018-09-01T00:03:57.931Z,102223.91
2018-09-01T00:06:27.976Z,102225.52
2018-09-01T00:08:57.867Z,102227.19
2018-09-01T00:11:28.126Z,102223.92
2018-09-01T00:13:58.328Z,102223.98
2018-09-01T00:16:28.382Z,102221.52
2018-09-01T00:18:58.657Z,102223.70
2018-09-01T00:21:29.108Z,102228.52
2018-09-01T00:24:02.220Z,102217.53
2018-09-01T00:26:32.108Z,102221.02
2018-09-01T00:29:02.057Z,102217.85
2018-09-01T00:31:31.943Z,102223.93
2018-09-01T00:34:01.859Z,102218.34
2018-09-01T00:36:31.803Z,102224.29
2018-09-01T00:39:03.605Z,102227.78
2018-09-01T00:41:33.970Z,102224.58
2018-09-01T00:44:04.119Z,102226.44
2018-09-01T00:46:34.919Z,102227.78
2018-09-01T00:49:04.906Z,102231.00
2018-09-01T00:51:35.114Z,102237.16
2018-09-01T00:54:05.090Z,102237.97
2018-09-01T00:56:35.075Z,102233.67
2018-09-01T00:59:05.028Z,102236.38
2018-09-01T01:01:35.035Z,102236.91
2018-09-01T01:04:04.929Z,102244.41
2018-09-01T01:06:34.839Z,102241.73
2018-09-01T01:09:05.507Z,102242.83
2018-09-01T01:11:35.479Z,102238.55
2018-09-01T01:14:05.438Z,102241.20
2018-09-01T01:16:35.287Z,102241.73
2018-09-01T01:19:05.217Z,102242.79
2018-09-01T01:21:35.614Z,102246.80
2018-09-01T01:24:05.596Z,102248.97
2018-09-01T01:26:35.473Z,102241.72
2018-09-01T01:29:05.573Z,102243.86
2018-09-01T01:31:35.353Z,102244.95
2018-09-01T01:34:05.412Z,102252.72
2018-09-01T01:36:35.251Z,102251.65
2018-09-01T01:39:06.443Z,102252.72
2018-09-01T01:41:36.515Z,102250.84
2018-09-01T01:44:07.104Z,102246.30
2018-09-01T01:46:37.037Z,102246.28
2018-09-01T01:49:07.187Z,102245.20
2018-09-01T01:51:37.249Z,102245.73
2018-09-01T01:54:07.504Z,102247.87
2018-09-01T01:56:37.540Z,102246.25
2018-09-01T01:59:08.007Z,102249.48
2018-09-01T02:01:37.852Z,102253.76
2018-09-01T02:04:07.848Z,102257.22
2018-09-01T02:06:37.967Z,102254.80
2018-09-01T02:09:08.121Z,102260.69
2018-09-01T02:11:37.964Z,102252.16
2018-09-01T02:14:08.267Z,102254.28
2018-09-01T02:16:38.051Z,102250.00
2018-09-01T02:19:08.363Z,102251.36
2018-09-01T02:21:38.281Z,102249.75
2018-09-01T02:24:08.595Z,102254.28
2018-09-01T02:26:38.516Z,102255.60
2018-09-01T02:29:08.703Z,102252.66
2018-09-01T02:31:38.495Z,102261.23
2018-09-01T02:34:08.455Z,102249.71
2018-09-01T02:36:38.182Z,102254.52
2018-09-01T02:39:08.364Z,102251.04
2018-09-01T02:41:38.341Z,102255.89
2018-09-01T02:44:08.591Z,102260.41
2018-09-01T02:46:38.451Z,102258.84
2018-09-01T02:49:08.256Z,102262.32
2018-09-01T02:51:38.248Z,102260.44
2018-09-01T02:54:08.226Z,102257.53
2018-09-01T02:56:38.255Z,102256.72
2018-09-01T02:59:08.015Z,102259.38
2018-09-01T03:01:38.398Z,102258.01
2018-09-01T03:04:08.872Z,102262.05
2018-09-01T03:06:56.812Z,102262.30
2018-09-01T03:09:27.171Z,102264.70
2018-09-01T03:11:58.350Z,102263.90
2018-09-01T03:14:28.854Z,102261.44
2018-09-01T03:16:58.754Z,102256.89
2018-09-01T03:19:28.698Z,102255.54
2018-09-01T03:21:58.769Z,102256.61
2018-09-01T03:24:28.650Z,102256.33
2018-09-01T03:26:58.643Z,102257.45
2018-09-01T03:29:28.575Z,102264.94
2018-09-01T03:31:58.617Z,102263.84
2018-09-01T03:34:28.985Z,102265.98
2018-09-01T03:36:58.909Z,102265.45
2018-09-01T03:39:29.079Z,102266.00
2018-09-01T03:41:58.832Z,102269.23
2018-09-01T03:44:28.682Z,102271.95
2018-09-01T03:46:58.521Z,102275.38
2018-09-01T03:49:28.404Z,102276.44
2018-09-01T03:51:58.464Z,102273.19
2018-09-01T03:54:28.429Z,102264.38
2018-09-01T03:56:58.633Z,102263.02
2018-09-01T03:59:28.771Z,102270.54
2018-09-01T04:01:58.741Z,102275.58
2018-09-01T04:04:28.907Z,102270.20
2018-09-01T04:06:58.930Z,102271.88
2018-09-01T04:09:28.898Z,102275.04
2018-09-01T04:11:58.947Z,102267.83
2018-09-01T04:14:28.762Z,102271.34
2018-09-01T04:16:58.682Z,102272.41
2018-09-01T04:19:28.559Z,102270.80
2018-09-01T04:21:58.583Z,102276.67
2018-09-01T04:24:28.773Z,102283.09
2018-09-01T04:26:58.698Z,102281.23
2018-09-01T04:29:28.646Z,102290.09
2018-09-01T04:31:58.623Z,102287.40
2018-09-01T04:34:28.571Z,102285.52
2018-09-01T04:36:58.716Z,102290.56
2018-09-01T04:39:28.620Z,102301.00
2018-09-01T04:41:58.540Z,102303.17
2018-09-01T04:44:28.411Z,102306.13
2018-09-01T04:46:59.343Z,102309.57
2018-09-01T04:49:29.198Z,102311.22
2018-09-01T04:51:59.448Z,102314.40
2018-09-01T04:54:29.264Z,102323.48
2018-09-01T04:56:59.424Z,102326.42
2018-09-01T04:59:29.309Z,102323.52
2018-09-01T05:02:00.471Z,102325.95
2018-09-01T05:04:30.308Z,102326.47
2018-09-01T05:07:01.902Z,102328.89
2018-09-01T05:09:32.010Z,102328.64
2018-09-01T05:12:02.127Z,102331.84
2018-09-01T05:14:32.276Z,102340.14
2018-09-01T05:17:02.268Z,102337.92
2018-09-01T05:19:32.245Z,102339.02
2018-09-01T05:22:02.177Z,102341.19
2018-09-01T05:24:32.051Z,102343.38
2018-09-01T05:27:01.956Z,102354.63
2018-09-01T05:29:31.891Z,102352.71
2018-09-01T05:32:01.824Z,102357.07
2018-09-01T05:34:31.903Z,102353.36
2018-09-01T05:37:01.809Z,102351.23
2018-09-01T05:39:31.680Z,102359.30
2018-09-01T05:42:01.902Z,102354.52
2018-09-01T05:44:32.300Z,102359.39
2018-09-01T05:47:02.114Z,102349.99
2018-09-01T05:49:32.223Z,102353.75
2018-09-01T05:52:02.277Z,102360.72
2018-09-01T05:54:32.207Z,102365.80
2018-09-01T05:57:02.387Z,102366.89
2018-09-01T05:59:32.222Z,102373.59
2018-09-01T06:02:02.354Z,102380.28
2018-09-01T06:04:32.418Z,102383.50
2018-09-01T06:07:02.407Z,102387.50
2018-09-01T06:09:32.593Z,102394.47
2018-09-01T06:12:02.724Z,102387.78
2018-09-01T06:14:32.591Z,102392.61
2018-09-01T06:17:02.814Z,102391.80
2018-09-01T06:19:32.530Z,102392.59
2018-09-01T06:22:02.496Z,102395.25
2018-09-01T06:24:32.312Z,102398.99
2018-09-01T06:27:06.029Z,102403.77
2018-09-01T06:29:36.106Z,102408.38
2018-09-01T06:32:07.376Z,102401.36
2018-09-01T06:34:37.614Z,102402.66
2018-09-01T06:37:07.444Z,102407.75
2018-09-01T06:39:37.441Z,102406.36
2018-09-01T06:42:07.655Z,102402.05
2018-09-01T06:44:37.717Z,102407.93
2018-09-01T06:47:07.652Z,102407.47
2018-09-01T06:49:37.772Z,102404.55
2018-09-01T06:52:07.725Z,102406.97
2018-09-01T06:54:37.607Z,102409.83
2018-09-01T06:57:07.519Z,102412.21
2018-09-01T06:59:37.827Z,102413.00
2018-09-01T07:02:08.610Z,102413.34
2018-09-01T07:04:38.656Z,102407.14
2018-09-01T07:07:08.504Z,102412.58
2018-09-01T07:09:38.420Z,102417.10
2018-09-01T07:12:08.635Z,102414.29
2018-09-01T07:14:38.723Z,102418.01
2018-09-01T07:17:08.581Z,102419.73
2018-09-01T07:19:38.556Z,102421.81
2018-09-01T07:22:08.416Z,102417.38
2018-09-01T07:24:38.369Z,102423.71
2018-09-01T07:27:08.395Z,102422.61
2018-09-01T07:29:38.229Z,102419.27
2018-09-01T07:32:08.015Z,102426.64
2018-09-01T07:34:38.192Z,102422.47
2018-09-01T07:37:08.207Z,102435.47
2018-09-01T07:39:38.083Z,102430.23
2018-09-01T07:42:08.295Z,102435.85
2018-09-01T07:44:38.512Z,102432.41
2018-09-01T07:47:08.597Z,102438.64
2018-09-01T07:49:38.604Z,102439.11
2018-09-01T07:52:09.175Z,102441.67
2018-09-01T07:54:39.378Z,102444.84
2018-09-01T07:57:09.123Z,102440.91
2018-09-01T07:59:39.246Z,102443.55
2018-09-01T08:02:09.932Z,102444.90
2018-09-01T08:04:41.493Z,102445.24
2018-09-01T08:07:11.624Z,102448.75
2018-09-01T08:09:41.920Z,102444.71
2018-09-01T08:12:11.975Z,102452.03
2018-09-01T08:14:42.295Z,102443.55
2018-09-01T08:17:12.252Z,102452.86
2018-09-01T08:19:42.040Z,102448.55
2018-09-01T08:22:12.236Z,102446.05
2018-09-01T08:24:42.067Z,102447.73
2018-09-01T08:27:12.373Z,102441.77
2018-09-01T08:29:42.317Z,102445.97
2018-09-01T08:32:12.209Z,102450.94
2018-09-01T08:34:42.591Z,102451.98
2018-09-01T08:37:12.942Z,102446.87
2018-09-01T08:39:43.306Z,102447.59
2018-09-01T08:42:13.769Z,102450.83
2018-09-01T08:44:44.159Z,102449.14
2018-09-01T08:47:14.395Z,102450.58
2018-09-01T08:49:44.828Z,102451.92
2018-09-01T08:52:15.323Z,102452.38
2018-09-01T08:54:45.534Z,102461.45
2018-09-01T08:57:15.609Z,102460.98
2018-09-01T08:59:45.641Z,102461.98
2018-09-01T09:02:15.952Z,102470.57
2018-09-01T09:04:45.995Z,102471.33
2018-09-01T09:07:16.109Z,102464.28
2018-09-01T09:09:46.039Z,102461.74
2018-09-01T09:12:16.314Z,102469.97
2018-09-01T09:14:46.377Z,102465.71
2018-09-01T09:17:16.418Z,102461.89
2018-09-01T09:19:46.253Z,102463.58
2018-09-01T09:22:16.615Z,102464.48
2018-09-01T09:24:46.602Z,102467.18
2018-09-01T09:27:16.507Z,102466.12
2018-09-01T09:29:46.429Z,102463.39
2018-09-01T09:32:16.323Z,102464.14
2018-09-01T09:34:46.321Z,102458.45
2018-09-01T09:37:16.385Z,102459.81
2018-09-01T09:39:46.214Z,102468.58
2018-09-01T09:42:16.370Z,102475.25
2018-09-01T09:44:46.513Z,102474.53
2018-09-01T09:47:16.581Z,102476.74
2018-09-01T09:49:46.744Z,102480.50
2018-09-01T09:52:16.661Z,102478.64
2018-09-01T09:54:46.755Z,102477.95
2018-09-01T09:57:17.008Z,102470.27
2018-09-01T09:59:46.962Z,102470.08
2018-09-01T10:02:16.875Z,102462.59
2018-09-01T10:04:47.034Z,102466.48
2018-09-01T10:07:17.007Z,102459.38
2018-09-01T10:09:46.787Z,102453.02
2018-09-01T10:12:16.653Z,102455.92
2018-09-01T10:14:46.627Z,102461.06
2018-09-01T10:17:16.406Z,102456.77
2018-09-01T10:19:46.344Z,102455.95
2018-09-01T10:24:53.808Z,102452.41
2018-09-01T10:27:28.629Z,102450.25
2018-09-01T10:29:58.714Z,102447.05
2018-09-01T10:32:28.657Z,102451.69
2018-09-01T10:34:59.148Z,102453.66
2018-09-01T10:37:31.683Z,102451.34
2018-09-01T10:40:01.944Z,102450.14
2018-09-01T10:42:32.275Z,102436.41
2018-09-01T10:45:04.871Z,102442.39
2018-09-01T10:47:34.731Z,102438.61
2018-09-01T10:50:06.381Z,102452.06
2018-09-01T10:52:36.470Z,102455.45
2018-09-01T10:55:07.050Z,102451.40
2018-09-01T10:57:36.937Z,102441.34
2018-09-01T11:00:07.665Z,102437.81
2018-09-01T11:02:44.200Z,102433.05
2018-09-01T11:05:14.209Z,102436.94
2018-09-01T11:07:44.372Z,102437.30
2018-09-01T11:10:14.340Z,102452.02
2018-09-01T11:12:44.781Z,102444.13
2018-09-01T11:15:14.633Z,102435.39
2018-09-01T11:17:44.634Z,102443.63
2018-09-01T11:20:14.816Z,102443.48
2018-09-01T11:22:45.303Z,102441.68
2018-09-01T11:25:17.884Z,102439.09
2018-09-01T11:27:51.880Z,102429.73
2018-09-01T11:30:21.705Z,102428.73
2018-09-01T11:32:51.872Z,102420.23
2018-09-01T11:35:21.912Z,102422.95
2018-09-01T11:37:51.814Z,102427.95
2018-09-01T11:40:22.041Z,102437.44
2018-09-01T11:42:52.190Z,102424.26
2018-09-01T11:45:21.909Z,102422.78
2018-09-01T11:47:51.870Z,102420.80
2018-09-01T11:50:21.911Z,102426.41
2018-09-01T11:52:53.082Z,102420.94
2018-09-01T11:55:28.062Z,102414.83
2018-09-01T11:57:58.170Z,102409.91
2018-09-01T12:00:28.158Z,102406.93
2018-09-01T12:02:57.973Z,102414.92
2018-09-01T12:05:28.064Z,102416.81
2018-09-01T12:07:58.087Z,102421.36
2018-09-01T12:10:28.350Z,102418.06
2018-09-01T12:12:58.371Z,102418.25
2018-09-01T12:15:28.428Z,102410.66
2018-09-01T12:18:01.480Z,102410.11
2018-09-01T12:20:31.560Z,102405.38
2018-09-01T12:23:02.588Z,102412.66
2018-09-01T12:25:32.433Z,102421.27
2018-09-01T12:28:02.579Z,102415.94
2018-09-01T12:30:32.769Z,102407.95
2018-09-01T12:33:03.012Z,102401.55
2018-09-01T12:35:32.929Z,102400.45
2018-09-01T12:38:02.873Z,102395.25
2018-09-01T12:40:32.833Z,102396.11
2018-09-01T12:43:02.786Z,102392.36
2018-09-01T12:45:32.740Z,102393.09
2018-09-01T12:48:02.639Z,102393.80
2018-09-01T12:50:32.529Z,102389.94
2018-09-01T12:53:02.696Z,102396.55
2018-09-01T12:55:32.532Z,102388.45
2018-09-01T12:58:02.594Z,102387.02
2018-09-01T13:00:32.589Z,102389.91
2018-09-01T13:03:02.640Z,102379.25
2018-09-01T13:05:32.590Z,102377.25
2018-09-01T13:08:02.524Z,102374.84
2018-09-01T13:10:32.802Z,102373.08
2018-09-01T13:13:02.756Z,102368.33
2018-09-01T13:15:32.875Z,102375.32
2018-09-01T13:18:02.927Z,102364.88
2018-09-01T13:20:32.822Z,102368.63
2018-09-01T13:23:02.938Z,102371.44
2018-09-01T13:25:33.013Z,102366.31
2018-09-01T13:28:03.100Z,102369.10
2018-09-01T13:30:33.327Z,102373.56
2018-09-01T13:33:03.347Z,102377.20
2018-09-01T13:35:33.298Z,102366.75
2018-09-01T13:38:03.278Z,102373.69
2018-09-01T13:40:33.303Z,102374.11
2018-09-01T13:43:03.464Z,102373.63
2018-09-01T13:45:33.430Z,102376.23
2018-09-01T13:48:03.350Z,102369.44
2018-09-01T13:50:33.442Z,102371.27
2018-09-01T13:53:03.434Z,102381.20
2018-09-01T13:55:33.743Z,102389.50
2018-09-01T13:58:03.898Z,102381.48
2018-09-01T14:00:34.022Z,102379.09
2018-09-01T14:03:04.262Z,102379.98
2018-09-01T14:05:34.172Z,102380.03
2018-09-01T14:08:04.573Z,102364.42
2018-09-01T14:10:35.083Z,102363.95
2018-09-01T14:13:05.202Z,102364.59
2018-09-01T14:15:35.208Z,102365.48
2018-09-01T14:18:05.142Z,102358.55
2018-09-01T14:20:34.997Z,102357.25
2018-09-01T14:23:04.926Z,102362.05
2018-09-01T14:25:34.958Z,102357.69
2018-09-01T14:28:04.955Z,102357.03
2018-09-01T14:30:35.117Z,102354.12
2018-09-01T14:33:05.149Z,102361.19
2018-09-01T14:35:35.362Z,102359.63
2018-09-01T14:38:05.250Z,102355.41
2018-09-01T14:40:35.087Z,102357.52
2018-09-01T14:43:05.197Z,102354.88
2018-09-01T14:45:35.183Z,102351.63
2018-09-01T14:48:05.421Z,102349.14
2018-09-01T14:50:35.782Z,102345.72
2018-09-01T14:53:05.753Z,102338.16
2018-09-01T14:55:35.650Z,102336.38
2018-09-01T14:58:05.784Z,102335.46
2018-09-01T15:00:35.838Z,102336.73
2018-09-01T15:03:05.715Z,102338.80
2018-09-01T15:05:35.744Z,102334.33
2018-09-01T15:08:05.937Z,102340.09
2018-09-01T15:10:35.918Z,102344.84
2018-09-01T15:13:05.917Z,102344.68
2018-09-01T15:15:35.755Z,102353.34
2018-09-01T15:18:05.729Z,102349.47
2018-09-01T15:20:35.776Z,102343.33
2018-09-01T15:23:05.983Z,102347.25
2018-09-01T15:25:35.962Z,102346.48
2018-09-01T15:28:05.943Z,102349.73
2018-09-01T15:30:35.731Z,102351.51
2018-09-01T15:33:05.806Z,102341.36
2018-09-01T15:35:35.845Z,102341.11
2018-09-01T15:38:05.762Z,102336.55
2018-09-01T15:40:35.678Z,102338.95
2018-09-01T15:43:05.772Z,102334.66
2018-09-01T15:45:36.105Z,102336.19
2018-09-01T15:48:06.163Z,102331.86
2018-09-01T15:50:36.089Z,102330.77
2018-09-01T15:53:06.205Z,102339.30
2018-09-01T15:55:36.178Z,102328.97
2018-09-01T16:00:35.057Z,102338.49
2018-09-01T16:03:05.260Z,102330.19
2018-09-01T16:05:35.566Z,102331.72
2018-09-01T16:08:06.186Z,102326.16
2018-09-01T16:10:36.211Z,102331.08
2018-09-01T16:13:06.484Z,102331.80
2018-09-01T16:15:36.401Z,102330.73
2018-09-01T16:18:06.524Z,102332.20
2018-09-01T16:20:36.778Z,102332.78
2018-09-01T16:23:07.409Z,102328.66
2018-09-01T16:25:37.601Z,102335.00
2018-09-01T16:28:07.992Z,102338.00
2018-09-01T16:30:41.296Z,102332.72
2018-09-01T16:33:11.334Z,102331.41
2018-09-01T16:35:42.580Z,102328.14
2018-09-01T16:38:12.540Z,102334.87
2018-09-01T16:40:42.543Z,102333.84
2018-09-01T16:43:12.492Z,102341.63
2018-09-01T16:45:43.041Z,102343.56
2018-09-01T16:48:13.314Z,102342.34
2018-09-01T16:50:43.285Z,102344.20
2018-09-01T16:53:13.149Z,102343.03
2018-09-01T16:55:43.027Z,102352.50
2018-09-01T16:58:13.030Z,102355.70
2018-09-01T17:00:43.360Z,102353.68
2018-09-01T17:03:13.504Z,102355.66
2018-09-01T17:05:43.502Z,102357.50
2018-09-01T17:08:13.481Z,102354.80
2018-09-01T17:10:43.331Z,102353.05
2018-09-01T17:13:13.153Z,102351.42
2018-09-01T17:15:43.007Z,102357.01
2018-09-01T17:18:13.067Z,102355.92
2018-09-01T17:20:43.160Z,102354.25
2018-09-01T17:23:19.804Z,102354.38
2018-09-01T17:25:50.081Z,102359.73
2018-09-01T17:28:20.013Z,102355.17
2018-09-01T17:30:50.271Z,102362.82
2018-09-01T17:33:20.425Z,102368.75
2018-09-01T17:35:50.658Z,102369.37
2018-09-01T17:38:20.452Z,102373.20
2018-09-01T17:40:50.410Z,102367.80
2018-09-01T17:43:20.440Z,102367.72
2018-09-01T17:45:50.610Z,102363.59
2018-09-01T17:48:21.293Z,102373.56
2018-09-01T17:50:51.510Z,102363.25
2018-09-01T17:53:21.521Z,102367.30
2018-09-01T17:55:51.906Z,102366.68
2018-09-01T17:58:21.915Z,102369.19
2018-09-01T18:00:52.767Z,102368.53
2018-09-01T18:03:22.791Z,102372.05
2018-09-01T18:05:52.761Z,102374.83
2018-09-01T18:08:23.532Z,102371.44
2018-09-01T18:10:53.461Z,102372.16
2018-09-01T18:13:23.718Z,102373.20
2018-09-01T18:15:54.169Z,102369.22
2018-09-01T18:18:24.599Z,102371.08
2018-09-01T18:20:54.835Z,102370.38
2018-09-01T18:23:24.763Z,102377.67
2018-09-01T18:25:54.644Z,102376.30
2018-09-01T18:28:25.504Z,102373.74
2018-09-01T18:30:56.259Z,102375.45
2018-09-01T18:33:26.288Z,102375.55
2018-09-01T18:35:56.541Z,102373.92
2018-09-01T18:38:26.417Z,102384.32
2018-09-01T18:40:57.063Z,102384.86
2018-09-01T18:43:27.538Z,102394.52
2018-09-01T18:45:57.677Z,102392.42
2018-09-01T18:48:27.753Z,102395.87
2018-09-01T18:50:58.116Z,102394.72
2018-09-01T18:53:28.156Z,102389.95
2018-09-01T18:55:58.548Z,102388.66
2018-09-01T18:58:28.444Z,102386.00
2018-09-01T19:00:58.503Z,102392.41
2018-09-01T19:03:28.599Z,102390.31
2018-09-01T19:05:58.670Z,102385.33
2018-09-01T19:08:28.801Z,102388.63
2018-09-01T19:10:58.719Z,102390.85
2018-09-01T19:13:28.675Z,102396.62
2018-09-01T19:15:58.789Z,102393.68
2018-09-01T19:18:28.716Z,102397.01
2018-09-01T19:20:58.771Z,102400.93
2018-09-01T19:23:28.787Z,102405.73
2018-09-01T19:25:58.815Z,102413.92
2018-09-01T19:28:28.768Z,102412.83
2018-09-01T19:30:58.905Z,102404.47
2018-09-01T19:33:28.876Z,102407.25
2018-09-01T19:35:59.600Z,102404.69
2018-09-01T19:38:29.468Z,102405.17
2018-09-01T19:40:59.459Z,102409.00
2018-09-01T19:43:29.646Z,102401.55
2018-09-01T19:45:59.955Z,102411.05
2018-09-01T19:48:29.967Z,102413.64
2018-09-01T19:51:01.060Z,102408.83
2018-09-01T19:53:31.037Z,102415.45
2018-09-01T19:56:01.257Z,102409.25
2018-09-01T19:58:31.230Z,102404.95
2018-09-01T20:01:01.295Z,102407.66
2018-09-01T20:03:31.356Z,102408.30
2018-09-01T20:06:02.046Z,102411.50
2018-09-01T20:08:32.951Z,102413.39
2018-09-01T20:11:03.477Z,102411.33
2018-09-01T20:13:33.398Z,102410.11
2018-09-01T20:16:03.408Z,102415.52
2018-09-01T20:18:33.755Z,102416.79
2018-09-01T20:21:03.855Z,102413.87
2018-09-01T20:23:34.105Z,102417.38
2018-09-01T20:26:04.420Z,102419.00
2018-09-01T20:28:34.312Z,102420.88
2018-09-01T20:31:04.541Z,102425.82
2018-09-01T20:33:34.697Z,102427.41
2018-09-01T20:36:04.661Z,102422.77
2018-09-01T20:38:35.028Z,102422.00
2018-09-01T20:41:04.969Z,102424.65
2018-09-01T20:43:35.174Z,102420.27
2018-09-01T20:46:05.157Z,102418.91
2018-09-01T20:48:35.200Z,102421.91
2018-09-01T20:51:05.554Z,102421.75
2018-09-01T20:53:35.688Z,102424.23
2018-09-01T20:56:05.979Z,102420.25
2018-09-01T20:58:36.376Z,102428.02
2018-09-01T21:01:06.551Z,102422.05
2018-09-01T21:03:36.583Z,102424.41
2018-09-01T21:06:06.869Z,102423.75
2018-09-01T21:08:36.754Z,102430.02
2018-09-01T21:11:07.093Z,102425.05
2018-09-01T21:13:37.548Z,102425.64
2018-09-01T21:16:08.034Z,102427.16
2018-09-01T21:18:37.880Z,102423.93
2018-09-01T21:21:08.031Z,102427.05
2018-09-01T21:23:38.260Z,102424.03
2018-09-01T21:26:08.442Z,102420.84
2018-09-01T21:28:38.692Z,102424.66
2018-09-01T21:31:08.570Z,102426.63
2018-09-01T21:33:38.519Z,102423.17
2018-09-01T21:36:08.863Z,102430.14
2018-09-01T21:38:38.748Z,102426.59
2018-09-01T21:41:08.901Z,102429.23
2018-09-01T21:43:39.032Z,102421.64
2018-09-01T21:46:08.937Z,102423.72
2018-09-01T21:48:38.924Z,102424.97
2018-09-01T21:51:08.798Z,102424.47
2018-09-01T21:53:38.712Z,102429.66
2018-09-01T21:56:08.940Z,102419.96
2018-09-01T21:58:39.100Z,102426.44
2018-09-01T22:01:14.640Z,102428.75
2018-09-01T22:03:48.227Z,102428.06
2018-09-01T22:06:23.501Z,102428.12
2018-09-01T22:08:53.875Z,102433.27
2018-09-01T22:11:23.891Z,102432.35
2018-09-01T22:13:54.100Z,102430.00
2018-09-01T22:16:24.149Z,102427.95
2018-09-01T22:18:54.278Z,102426.08
2018-09-01T22:21:24.424Z,102430.16
2018-09-01T22:23:54.306Z,102426.97
2018-09-01T22:26:24.396Z,102424.45
2018-09-01T22:28:54.244Z,102430.19
2018-09-01T22:31:24.695Z,102426.61
2018-09-01T22:33:54.619Z,102423.99
2018-09-01T22:36:24.585Z,102427.75
2018-09-01T22:38:54.473Z,102421.38
2018-09-01T22:41:24.496Z,102419.43
2018-09-01T22:43:54.547Z,102421.88
2018-09-01T22:46:24.647Z,102418.41
2018-09-01T22:48:54.829Z,102420.81
2018-09-01T22:51:24.916Z,102419.25
2018-09-01T22:53:54.858Z,102415.19
2018-09-01T22:56:24.842Z,102423.56
2018-09-01T22:58:54.789Z,102423.25
2018-09-01T23:01:24.973Z,102429.73
2018-09-01T23:03:55.427Z,102425.48
2018-09-01T23:06:25.747Z,102429.77
2018-09-01T23:08:55.758Z,102425.45
2018-09-01T23:11:25.724Z,102417.10
2018-09-01T23:13:55.683Z,102422.82
2018-09-01T23:16:25.705Z,102421.16
2018-09-01T23:18:55.618Z,102414.41
2018-09-01T23:21:25.438Z,102410.91
2018-09-01T23:23:55.381Z,102420.07
2018-09-01T23:26:25.320Z,102424.16
2018-09-01T23:28:55.199Z,102418.76
2018-09-01T23:31:25.397Z,102425.79
2018-09-01T23:33:55.236Z,102423.66
2018-09-01T23:36:25.181Z,102422.32
2018-09-01T23:38:55.011Z,102420.97
2018-09-01T23:41:25.041Z,102427.97
2018-09-01T23:43:55.144Z,102419.91
2018-09-01T23:46:25.058Z,102421.78
2018-09-01T23:48:55.017Z,102426.60
2018-09-01T23:51:25.039Z,102423.94
2018-09-01T23:53:55.163Z,102423.38
2018-09-01T23:56:24.957Z,102423.47
2018-09-01T23:58:54.759Z,102417.59
